sensor_id;sensor_type;location;lat;lon;timestamp;P1;durP1;ratioP1;P2;durP2;ratioP2
11771;SDS011;12556;55.748;13.194;2022-10-31T00:01:48;42.47;;;25.47;;
11771;SDS011;12556;55.748;13.194;2022-10-31T00:04:15;39.03;;;24.70;;
11771;SDS011;12556;55.748;13.194;2022-10-31T00:06:42;33.57;;;22.83;;
11771;SDS011;12556;55.748;13.194;2022-10-31T00:09:09;34.10;;;21.43;;
11771;SDS011;12556;55.748;13.194;2022-10-31T00:11:38;35.50;;;21.97;;
11771;SDS011;12556;55.748;13.194;2022-10-31T00:14:06;36.70;;;21.80;;
11771;SDS011;12556;55.748;13.194;2022-10-31T00:16:33;37.53;;;23.17;;
11771;SDS011;12556;55.748;13.194;2022-10-31T00:19:01;32.20;;;20.37;;
11771;SDS011;12556;55.748;13.194;2022-10-31T00:21:30;36.43;;;23.00;;
11771;SDS011;12556;55.748;13.194;2022-10-31T00:23:57;36.30;;;22.83;;
11771;SDS011;12556;55.748;13.194;2022-10-31T00:26:26;38.70;;;22.53;;
11771;SDS011;12556;55.748;13.194;2022-10-31T00:28:54;40.93;;;24.23;;
11771;SDS011;12556;55.748;13.194;2022-10-31T00:31:21;37.37;;;23.03;;
11771;SDS011;12556;55.748;13.194;2022-10-31T00:33:48;35.93;;;22.60;;
11771;SDS011;12556;55.748;13.194;2022-10-31T00:36:16;33.17;;;21.67;;
11771;SDS011;12556;55.748;13.194;2022-10-31T00:38:44;40.13;;;22.63;;
11771;SDS011;12556;55.748;13.194;2022-10-31T00:41:12;39.33;;;23.30;;
11771;SDS011;12556;55.748;13.194;2022-10-31T00:43:40;37.27;;;23.30;;
11771;SDS011;12556;55.748;13.194;2022-10-31T00:46:08;37.63;;;22.50;;
11771;SDS011;12556;55.748;13.194;2022-10-31T00:48:36;36.60;;;23.53;;
11771;SDS011;12556;55.748;13.194;2022-10-31T00:51:02;32.00;;;21.13;;
11771;SDS011;12556;55.748;13.194;2022-10-31T00:53:30;36.70;;;22.37;;
11771;SDS011;12556;55.748;13.194;2022-10-31T00:55:57;38.50;;;23.93;;
11771;SDS011;12556;55.748;13.194;2022-10-31T00:58:24;41.90;;;24.73;;
11771;SDS011;12556;55.748;13.194;2022-10-31T01:00:51;32.10;;;20.77;;
11771;SDS011;12556;55.748;13.194;2022-10-31T01:03:22;34.07;;;21.97;;
11771;SDS011;12556;55.748;13.194;2022-10-31T01:05:56;31.57;;;21.37;;
11771;SDS011;12556;55.748;13.194;2022-10-31T01:08:25;30.90;;;20.03;;
11771;SDS011;12556;55.748;13.194;2022-10-31T01:11:03;33.33;;;21.17;;
11771;SDS011;12556;55.748;13.194;2022-10-31T01:13:33;33.53;;;22.80;;
11771;SDS011;12556;55.748;13.194;2022-10-31T01:16:01;35.97;;;20.97;;
11771;SDS011;12556;55.748;13.194;2022-10-31T01:18:31;36.40;;;23.50;;
11771;SDS011;12556;55.748;13.194;2022-10-31T01:21:02;37.47;;;22.70;;
11771;SDS011;12556;55.748;13.194;2022-10-31T01:23:30;32.27;;;20.67;;
11771;SDS011;12556;55.748;13.194;2022-10-31T01:25:59;30.07;;;20.00;;
11771;SDS011;12556;55.748;13.194;2022-10-31T01:28:27;29.83;;;20.00;;
11771;SDS011;12556;55.748;13.194;2022-10-31T01:30:54;33.33;;;21.13;;
11771;SDS011;12556;55.748;13.194;2022-10-31T01:33:20;35.90;;;22.17;;
11771;SDS011;12556;55.748;13.194;2022-10-31T01:35:49;32.53;;;20.97;;
11771;SDS011;12556;55.748;13.194;2022-10-31T01:38:16;36.97;;;22.97;;
11771;SDS011;12556;55.748;13.194;2022-10-31T01:40:42;32.90;;;19.80;;
11771;SDS011;12556;55.748;13.194;2022-10-31T01:43:11;26.47;;;17.97;;
11771;SDS011;12556;55.748;13.194;2022-10-31T01:45:39;27.97;;;19.57;;
11771;SDS011;12556;55.748;13.194;2022-10-31T01:48:10;31.43;;;19.93;;
11771;SDS011;12556;55.748;13.194;2022-10-31T01:50:39;33.13;;;20.63;;
11771;SDS011;12556;55.748;13.194;2022-10-31T01:53:09;27.73;;;19.87;;
11771;SDS011;12556;55.748;13.194;2022-10-31T01:55:38;30.73;;;19.60;;
11771;SDS011;12556;55.748;13.194;2022-10-31T01:58:07;30.83;;;20.03;;
11771;SDS011;12556;55.748;13.194;2022-10-31T02:00:38;34.13;;;20.70;;
11771;SDS011;12556;55.748;13.194;2022-10-31T02:03:08;32.57;;;20.23;;
11771;SDS011;12556;55.748;13.194;2022-10-31T02:05:35;30.50;;;19.67;;
11771;SDS011;12556;55.748;13.194;2022-10-31T02:08:04;31.43;;;18.50;;
11771;SDS011;12556;55.748;13.194;2022-10-31T02:10:36;25.93;;;17.47;;
11771;SDS011;12556;55.748;13.194;2022-10-31T02:13:04;28.23;;;18.67;;
11771;SDS011;12556;55.748;13.194;2022-10-31T02:15:33;27.90;;;18.30;;
11771;SDS011;12556;55.748;13.194;2022-10-31T02:18:01;26.00;;;16.23;;
11771;SDS011;12556;55.748;13.194;2022-10-31T02:20:31;25.93;;;17.27;;
11771;SDS011;12556;55.748;13.194;2022-10-31T02:23:13;30.10;;;18.00;;
11771;SDS011;12556;55.748;13.194;2022-10-31T02:26:24;29.60;;;17.97;;
11771;SDS011;12556;55.748;13.194;2022-10-31T02:29:05;30.20;;;18.57;;
11771;SDS011;12556;55.748;13.194;2022-10-31T02:31:45;28.47;;;18.50;;
11771;SDS011;12556;55.748;13.194;2022-10-31T02:34:20;26.87;;;17.90;;
11771;SDS011;12556;55.748;13.194;2022-10-31T02:36:52;28.73;;;19.10;;
11771;SDS011;12556;55.748;13.194;2022-10-31T02:39:24;28.03;;;18.63;;
11771;SDS011;12556;55.748;13.194;2022-10-31T02:41:58;28.40;;;17.93;;
11771;SDS011;12556;55.748;13.194;2022-10-31T02:44:32;28.70;;;19.30;;
11771;SDS011;12556;55.748;13.194;2022-10-31T02:47:05;28.77;;;18.33;;
11771;SDS011;12556;55.748;13.194;2022-10-31T02:49:35;26.73;;;18.53;;
11771;SDS011;12556;55.748;13.194;2022-10-31T02:52:13;28.13;;;17.73;;
11771;SDS011;12556;55.748;13.194;2022-10-31T02:54:43;26.90;;;19.10;;
11771;SDS011;12556;55.748;13.194;2022-10-31T02:57:12;25.33;;;17.20;;
11771;SDS011;12556;55.748;13.194;2022-10-31T02:59:42;25.20;;;17.97;;
11771;SDS011;12556;55.748;13.194;2022-10-31T03:02:19;30.63;;;17.93;;
11771;SDS011;12556;55.748;13.194;2022-10-31T03:05:20;26.73;;;17.83;;
11771;SDS011;12556;55.748;13.194;2022-10-31T03:07:56;25.83;;;17.40;;
11771;SDS011;12556;55.748;13.194;2022-10-31T03:10:28;29.27;;;17.00;;
11771;SDS011;12556;55.748;13.194;2022-10-31T03:13:01;23.20;;;16.73;;
11771;SDS011;12556;55.748;13.194;2022-10-31T03:15:36;26.10;;;17.30;;
11771;SDS011;12556;55.748;13.194;2022-10-31T03:18:09;27.00;;;17.47;;
11771;SDS011;12556;55.748;13.194;2022-10-31T03:20:39;25.93;;;17.60;;
11771;SDS011;12556;55.748;13.194;2022-10-31T03:23:12;27.30;;;17.30;;
11771;SDS011;12556;55.748;13.194;2022-10-31T03:25:40;28.57;;;17.80;;
11771;SDS011;12556;55.748;13.194;2022-10-31T03:28:09;25.37;;;17.90;;
11771;SDS011;12556;55.748;13.194;2022-10-31T03:30:41;30.37;;;18.73;;
11771;SDS011;12556;55.748;13.194;2022-10-31T03:33:13;26.87;;;16.37;;
11771;SDS011;12556;55.748;13.194;2022-10-31T03:35:44;24.23;;;15.87;;
11771;SDS011;12556;55.748;13.194;2022-10-31T03:38:14;26.63;;;17.00;;
11771;SDS011;12556;55.748;13.194;2022-10-31T03:40:42;27.33;;;17.17;;
11771;SDS011;12556;55.748;13.194;2022-10-31T03:43:13;26.90;;;16.13;;
11771;SDS011;12556;55.748;13.194;2022-10-31T03:45:58;28.37;;;16.70;;
11771;SDS011;12556;55.748;13.194;2022-10-31T03:48:27;24.37;;;15.63;;
11771;SDS011;12556;55.748;13.194;2022-10-31T03:50:56;26.00;;;16.60;;
11771;SDS011;12556;55.748;13.194;2022-10-31T03:53:30;22.27;;;15.37;;
11771;SDS011;12556;55.748;13.194;2022-10-31T03:56:01;22.50;;;16.20;;
11771;SDS011;12556;55.748;13.194;2022-10-31T03:58:34;25.67;;;16.07;;
11771;SDS011;12556;55.748;13.194;2022-10-31T04:01:05;25.13;;;16.07;;
11771;SDS011;12556;55.748;13.194;2022-10-31T04:03:35;28.13;;;15.80;;
11771;SDS011;12556;55.748;13.194;2022-10-31T04:06:05;30.17;;;17.23;;
11771;SDS011;12556;55.748;13.194;2022-10-31T04:08:36;24.87;;;16.63;;
11771;SDS011;12556;55.748;13.194;2022-10-31T04:11:08;24.53;;;15.67;;
11771;SDS011;12556;55.748;13.194;2022-10-31T04:13:38;28.30;;;16.57;;
11771;SDS011;12556;55.748;13.194;2022-10-31T04:16:08;24.33;;;16.00;;
11771;SDS011;12556;55.748;13.194;2022-10-31T04:18:38;27.00;;;16.47;;
11771;SDS011;12556;55.748;13.194;2022-10-31T04:21:05;25.07;;;15.93;;
11771;SDS011;12556;55.748;13.194;2022-10-31T04:23:34;24.53;;;16.13;;
11771;SDS011;12556;55.748;13.194;2022-10-31T04:26:02;24.97;;;15.80;;
11771;SDS011;12556;55.748;13.194;2022-10-31T04:28:29;25.07;;;15.37;;
11771;SDS011;12556;55.748;13.194;2022-10-31T04:30:57;25.20;;;16.00;;
11771;SDS011;12556;55.748;13.194;2022-10-31T04:33:24;25.47;;;16.57;;
11771;SDS011;12556;55.748;13.194;2022-10-31T04:35:53;26.10;;;15.37;;
11771;SDS011;12556;55.748;13.194;2022-10-31T04:38:20;19.70;;;14.77;;
11771;SDS011;12556;55.748;13.194;2022-10-31T04:40:46;19.93;;;15.03;;
11771;SDS011;12556;55.748;13.194;2022-10-31T04:43:13;22.90;;;15.30;;
11771;SDS011;12556;55.748;13.194;2022-10-31T04:45:40;20.17;;;14.03;;
11771;SDS011;12556;55.748;13.194;2022-10-31T04:48:07;25.57;;;15.43;;
11771;SDS011;12556;55.748;13.194;2022-10-31T04:50:34;22.03;;;14.97;;
11771;SDS011;12556;55.748;13.194;2022-10-31T04:53:03;22.20;;;14.83;;
11771;SDS011;12556;55.748;13.194;2022-10-31T04:55:29;25.90;;;15.17;;
11771;SDS011;12556;55.748;13.194;2022-10-31T04:57:56;22.27;;;14.93;;
11771;SDS011;12556;55.748;13.194;2022-10-31T05:00:24;23.10;;;15.30;;
11771;SDS011;12556;55.748;13.194;2022-10-31T05:02:51;21.30;;;14.37;;
11771;SDS011;12556;55.748;13.194;2022-10-31T05:05:21;23.77;;;15.47;;
11771;SDS011;12556;55.748;13.194;2022-10-31T05:07:49;19.53;;;14.27;;
11771;SDS011;12556;55.748;13.194;2022-10-31T05:10:19;17.77;;;13.40;;
11771;SDS011;12556;55.748;13.194;2022-10-31T05:12:47;24.97;;;15.77;;
11771;SDS011;12556;55.748;13.194;2022-10-31T05:15:15;24.87;;;15.77;;
11771;SDS011;12556;55.748;13.194;2022-10-31T05:17:43;21.63;;;14.70;;
11771;SDS011;12556;55.748;13.194;2022-10-31T05:20:10;23.33;;;15.23;;
11771;SDS011;12556;55.748;13.194;2022-10-31T05:22:41;20.03;;;13.70;;
11771;SDS011;12556;55.748;13.194;2022-10-31T05:25:09;21.20;;;14.57;;
11771;SDS011;12556;55.748;13.194;2022-10-31T05:27:39;21.50;;;15.10;;
11771;SDS011;12556;55.748;13.194;2022-10-31T05:30:07;23.33;;;14.77;;
11771;SDS011;12556;55.748;13.194;2022-10-31T05:32:38;25.33;;;16.00;;
11771;SDS011;12556;55.748;13.194;2022-10-31T05:35:05;22.57;;;16.17;;
11771;SDS011;12556;55.748;13.194;2022-10-31T05:37:34;21.00;;;13.77;;
11771;SDS011;12556;55.748;13.194;2022-10-31T05:40:01;21.60;;;14.73;;
11771;SDS011;12556;55.748;13.194;2022-10-31T05:42:28;25.53;;;15.67;;
11771;SDS011;12556;55.748;13.194;2022-10-31T05:44:56;20.37;;;14.13;;
11771;SDS011;12556;55.748;13.194;2022-10-31T05:47:23;19.63;;;14.33;;
11771;SDS011;12556;55.748;13.194;2022-10-31T05:49:50;22.13;;;14.80;;
11771;SDS011;12556;55.748;13.194;2022-10-31T05:52:17;23.50;;;15.30;;
11771;SDS011;12556;55.748;13.194;2022-10-31T05:54:44;23.40;;;14.67;;
11771;SDS011;12556;55.748;13.194;2022-10-31T05:57:11;22.23;;;14.57;;
11771;SDS011;12556;55.748;13.194;2022-10-31T05:59:38;22.83;;;14.20;;
11771;SDS011;12556;55.748;13.194;2022-10-31T06:02:06;24.40;;;14.73;;
11771;SDS011;12556;55.748;13.194;2022-10-31T06:04:33;21.93;;;14.70;;
11771;SDS011;12556;55.748;13.194;2022-10-31T06:07:00;21.17;;;14.37;;
11771;SDS011;12556;55.748;13.194;2022-10-31T06:09:27;23.50;;;14.97;;
11771;SDS011;12556;55.748;13.194;2022-10-31T06:11:54;25.03;;;15.93;;
11771;SDS011;12556;55.748;13.194;2022-10-31T06:14:21;22.37;;;15.23;;
11771;SDS011;12556;55.748;13.194;2022-10-31T06:16:48;24.80;;;15.27;;
11771;SDS011;12556;55.748;13.194;2022-10-31T06:19:16;23.30;;;15.80;;
11771;SDS011;12556;55.748;13.194;2022-10-31T06:21:43;26.43;;;14.93;;
11771;SDS011;12556;55.748;13.194;2022-10-31T06:24:10;23.70;;;15.87;;
11771;SDS011;12556;55.748;13.194;2022-10-31T06:26:37;22.03;;;14.80;;
11771;SDS011;12556;55.748;13.194;2022-10-31T06:29:03;20.70;;;14.27;;
11771;SDS011;12556;55.748;13.194;2022-10-31T06:31:30;21.20;;;14.93;;
11771;SDS011;12556;55.748;13.194;2022-10-31T06:33:57;19.60;;;15.07;;
11771;SDS011;12556;55.748;13.194;2022-10-31T06:36:25;23.80;;;15.37;;
11771;SDS011;12556;55.748;13.194;2022-10-31T06:38:52;24.40;;;16.20;;
11771;SDS011;12556;55.748;13.194;2022-10-31T06:41:19;26.10;;;15.53;;
11771;SDS011;12556;55.748;13.194;2022-10-31T06:43:46;25.07;;;16.27;;
11771;SDS011;12556;55.748;13.194;2022-10-31T06:46:13;25.13;;;17.03;;
11771;SDS011;12556;55.748;13.194;2022-10-31T06:48:40;24.43;;;15.63;;
11771;SDS011;12556;55.748;13.194;2022-10-31T06:51:07;25.20;;;15.60;;
11771;SDS011;12556;55.748;13.194;2022-10-31T06:53:36;25.53;;;16.83;;
11771;SDS011;12556;55.748;13.194;2022-10-31T06:56:03;27.07;;;17.03;;
11771;SDS011;12556;55.748;13.194;2022-10-31T06:58:30;26.40;;;16.13;;
11771;SDS011;12556;55.748;13.194;2022-10-31T07:00:58;22.17;;;14.97;;
11771;SDS011;12556;55.748;13.194;2022-10-31T07:03:26;24.53;;;15.70;;
11771;SDS011;12556;55.748;13.194;2022-10-31T07:05:54;23.33;;;15.80;;
11771;SDS011;12556;55.748;13.194;2022-10-31T07:08:21;24.23;;;15.67;;
11771;SDS011;12556;55.748;13.194;2022-10-31T07:10:52;27.70;;;16.67;;
11771;SDS011;12556;55.748;13.194;2022-10-31T07:13:20;25.20;;;16.37;;
11771;SDS011;12556;55.748;13.194;2022-10-31T07:15:50;27.70;;;17.37;;
11771;SDS011;12556;55.748;13.194;2022-10-31T07:18:19;27.03;;;17.50;;
11771;SDS011;12556;55.748;13.194;2022-10-31T07:20:46;25.10;;;17.00;;
11771;SDS011;12556;55.748;13.194;2022-10-31T07:23:14;24.10;;;16.37;;
11771;SDS011;12556;55.748;13.194;2022-10-31T07:25:41;24.53;;;16.97;;
11771;SDS011;12556;55.748;13.194;2022-10-31T07:28:10;24.67;;;16.30;;
11771;SDS011;12556;55.748;13.194;2022-10-31T07:30:37;32.20;;;16.93;;
11771;SDS011;12556;55.748;13.194;2022-10-31T07:33:04;28.43;;;17.13;;
11771;SDS011;12556;55.748;13.194;2022-10-31T07:35:34;29.63;;;17.83;;
11771;SDS011;12556;55.748;13.194;2022-10-31T07:38:07;26.20;;;17.40;;
11771;SDS011;12556;55.748;13.194;2022-10-31T07:40:35;26.30;;;17.73;;
11771;SDS011;12556;55.748;13.194;2022-10-31T07:43:02;29.27;;;17.37;;
11771;SDS011;12556;55.748;13.194;2022-10-31T07:45:30;24.97;;;16.97;;
11771;SDS011;12556;55.748;13.194;2022-10-31T07:47:58;27.30;;;18.77;;
11771;SDS011;12556;55.748;13.194;2022-10-31T07:50:25;23.97;;;17.10;;
11771;SDS011;12556;55.748;13.194;2022-10-31T07:52:59;23.23;;;17.37;;
11771;SDS011;12556;55.748;13.194;2022-10-31T07:55:27;26.00;;;17.07;;
11771;SDS011;12556;55.748;13.194;2022-10-31T07:57:55;25.47;;;17.20;;
11771;SDS011;12556;55.748;13.194;2022-10-31T08:00:23;26.93;;;18.37;;
11771;SDS011;12556;55.748;13.194;2022-10-31T08:02:57;27.40;;;17.70;;
11771;SDS011;12556;55.748;13.194;2022-10-31T08:05:24;25.90;;;17.10;;
11771;SDS011;12556;55.748;13.194;2022-10-31T08:07:51;27.90;;;17.67;;
11771;SDS011;12556;55.748;13.194;2022-10-31T08:10:19;26.27;;;17.47;;
11771;SDS011;12556;55.748;13.194;2022-10-31T08:12:46;30.27;;;17.70;;
11771;SDS011;12556;55.748;13.194;2022-10-31T08:15:20;25.97;;;17.13;;
11771;SDS011;12556;55.748;13.194;2022-10-31T08:17:47;24.17;;;16.87;;
11771;SDS011;12556;55.748;13.194;2022-10-31T08:20:15;25.00;;;15.80;;
11771;SDS011;12556;55.748;13.194;2022-10-31T08:22:42;27.53;;;16.60;;
11771;SDS011;12556;55.748;13.194;2022-10-31T08:25:09;26.07;;;16.90;;
11771;SDS011;12556;55.748;13.194;2022-10-31T08:27:36;30.17;;;19.17;;
11771;SDS011;12556;55.748;13.194;2022-10-31T08:30:03;25.33;;;17.23;;
11771;SDS011;12556;55.748;13.194;2022-10-31T08:32:31;32.50;;;19.17;;
11771;SDS011;12556;55.748;13.194;2022-10-31T08:34:58;32.67;;;19.97;;
11771;SDS011;12556;55.748;13.194;2022-10-31T08:37:26;34.73;;;19.93;;
11771;SDS011;12556;55.748;13.194;2022-10-31T08:39:53;35.77;;;20.90;;
11771;SDS011;12556;55.748;13.194;2022-10-31T08:42:20;39.37;;;21.73;;
11771;SDS011;12556;55.748;13.194;2022-10-31T08:44:47;35.97;;;21.77;;
11771;SDS011;12556;55.748;13.194;2022-10-31T08:47:14;37.27;;;22.30;;
11771;SDS011;12556;55.748;13.194;2022-10-31T08:49:41;37.20;;;21.77;;
11771;SDS011;12556;55.748;13.194;2022-10-31T08:52:08;34.03;;;22.13;;
11771;SDS011;12556;55.748;13.194;2022-10-31T08:54:36;43.40;;;22.97;;
11771;SDS011;12556;55.748;13.194;2022-10-31T08:57:03;41.67;;;23.43;;
11771;SDS011;12556;55.748;13.194;2022-10-31T08:59:30;49.37;;;23.37;;
11771;SDS011;12556;55.748;13.194;2022-10-31T09:01:57;41.17;;;23.30;;
11771;SDS011;12556;55.748;13.194;2022-10-31T09:04:23;48.13;;;24.50;;
11771;SDS011;12556;55.748;13.194;2022-10-31T09:06:50;43.33;;;23.67;;
11771;SDS011;12556;55.748;13.194;2022-10-31T09:09:17;42.70;;;21.57;;
11771;SDS011;12556;55.748;13.194;2022-10-31T09:11:45;57.43;;;24.67;;
11771;SDS011;12556;55.748;13.194;2022-10-31T09:14:12;51.27;;;25.23;;
11771;SDS011;12556;55.748;13.194;2022-10-31T09:16:39;51.20;;;23.70;;
11771;SDS011;12556;55.748;13.194;2022-10-31T09:19:06;54.60;;;24.47;;
11771;SDS011;12556;55.748;13.194;2022-10-31T09:21:33;50.53;;;24.03;;
11771;SDS011;12556;55.748;13.194;2022-10-31T09:24:00;54.00;;;24.57;;
11771;SDS011;12556;55.748;13.194;2022-10-31T09:26:27;56.80;;;23.10;;
11771;SDS011;12556;55.748;13.194;2022-10-31T09:28:55;54.20;;;22.77;;
11771;SDS011;12556;55.748;13.194;2022-10-31T09:31:22;53.37;;;21.13;;
11771;SDS011;12556;55.748;13.194;2022-10-31T09:33:49;54.73;;;22.30;;
11771;SDS011;12556;55.748;13.194;2022-10-31T09:36:18;70.20;;;24.07;;
11771;SDS011;12556;55.748;13.194;2022-10-31T09:38:45;59.90;;;23.00;;
11771;SDS011;12556;55.748;13.194;2022-10-31T09:41:14;58.17;;;19.93;;
11771;SDS011;12556;55.748;13.194;2022-10-31T09:43:49;49.83;;;18.40;;
11771;SDS011;12556;55.748;13.194;2022-10-31T09:46:25;29.00;;;13.43;;
11771;SDS011;12556;55.748;13.194;2022-10-31T09:49:13;25.43;;;10.57;;
11771;SDS011;12556;55.748;13.194;2022-10-31T09:51:51;21.00;;;10.70;;
11771;SDS011;12556;55.748;13.194;2022-10-31T09:54:25;20.93;;;9.50;;
11771;SDS011;12556;55.748;13.194;2022-10-31T09:56:56;19.17;;;8.90;;
11771;SDS011;12556;55.748;13.194;2022-10-31T09:59:26;17.17;;;7.83;;
11771;SDS011;12556;55.748;13.194;2022-10-31T10:01:59;18.80;;;8.30;;
11771;SDS011;12556;55.748;13.194;2022-10-31T10:04:36;12.73;;;7.07;;
11771;SDS011;12556;55.748;13.194;2022-10-31T10:07:10;16.53;;;7.80;;
11771;SDS011;12556;55.748;13.194;2022-10-31T10:09:42;14.73;;;7.33;;
11771;SDS011;12556;55.748;13.194;2022-10-31T10:12:13;14.57;;;7.47;;
11771;SDS011;12556;55.748;13.194;2022-10-31T10:14:51;15.97;;;7.53;;
11771;SDS011;12556;55.748;13.194;2022-10-31T10:17:42;18.97;;;7.73;;
11771;SDS011;12556;55.748;13.194;2022-10-31T10:20:18;17.57;;;8.40;;
11771;SDS011;12556;55.748;13.194;2022-10-31T10:22:55;17.27;;;7.83;;
11771;SDS011;12556;55.748;13.194;2022-10-31T10:25:33;14.73;;;7.33;;
11771;SDS011;12556;55.748;13.194;2022-10-31T10:28:08;12.03;;;6.77;;
11771;SDS011;12556;55.748;13.194;2022-10-31T10:30:44;13.43;;;7.60;;
11771;SDS011;12556;55.748;13.194;2022-10-31T10:33:15;14.27;;;8.47;;
11771;SDS011;12556;55.748;13.194;2022-10-31T10:35:47;15.57;;;9.00;;
11771;SDS011;12556;55.748;13.194;2022-10-31T10:38:20;14.07;;;8.07;;
11771;SDS011;12556;55.748;13.194;2022-10-31T10:40:51;13.53;;;9.77;;
11771;SDS011;12556;55.748;13.194;2022-10-31T10:43:21;14.23;;;8.67;;
11771;SDS011;12556;55.748;13.194;2022-10-31T10:45:50;15.83;;;9.70;;
11771;SDS011;12556;55.748;13.194;2022-10-31T10:48:43;15.87;;;10.30;;
11771;SDS011;12556;55.748;13.194;2022-10-31T10:51:20;16.47;;;9.50;;
11771;SDS011;12556;55.748;13.194;2022-10-31T10:53:53;16.50;;;10.13;;
11771;SDS011;12556;55.748;13.194;2022-10-31T10:56:36;15.33;;;10.13;;
11771;SDS011;12556;55.748;13.194;2022-10-31T10:59:09;18.40;;;11.03;;
11771;SDS011;12556;55.748;13.194;2022-10-31T11:01:39;22.63;;;11.40;;
11771;SDS011;12556;55.748;13.194;2022-10-31T11:04:14;20.83;;;12.00;;
11771;SDS011;12556;55.748;13.194;2022-10-31T11:06:58;21.03;;;12.40;;
11771;SDS011;12556;55.748;13.194;2022-10-31T11:09:26;20.83;;;12.03;;
11771;SDS011;12556;55.748;13.194;2022-10-31T11:11:54;23.67;;;13.43;;
11771;SDS011;12556;55.748;13.194;2022-10-31T11:14:21;20.97;;;12.33;;
11771;SDS011;12556;55.748;13.194;2022-10-31T11:16:50;26.83;;;13.23;;
11771;SDS011;12556;55.748;13.194;2022-10-31T11:19:22;24.20;;;13.40;;
11771;SDS011;12556;55.748;13.194;2022-10-31T11:21:51;23.90;;;11.90;;
11771;SDS011;12556;55.748;13.194;2022-10-31T11:24:19;22.27;;;13.83;;
11771;SDS011;12556;55.748;13.194;2022-10-31T11:26:49;23.33;;;13.83;;
11771;SDS011;12556;55.748;13.194;2022-10-31T11:29:19;26.00;;;13.40;;
11771;SDS011;12556;55.748;13.194;2022-10-31T11:31:48;21.80;;;13.40;;
11771;SDS011;12556;55.748;13.194;2022-10-31T11:34:22;27.60;;;14.17;;
11771;SDS011;12556;55.748;13.194;2022-10-31T11:37:00;25.73;;;14.93;;
11771;SDS011;12556;55.748;13.194;2022-10-31T11:39:38;27.47;;;15.17;;
11771;SDS011;12556;55.748;13.194;2022-10-31T11:42:08;30.30;;;15.03;;
11771;SDS011;12556;55.748;13.194;2022-10-31T11:44:35;29.77;;;15.63;;
11771;SDS011;12556;55.748;13.194;2022-10-31T11:47:03;22.27;;;13.83;;
11771;SDS011;12556;55.748;13.194;2022-10-31T11:49:33;28.47;;;14.67;;
11771;SDS011;12556;55.748;13.194;2022-10-31T11:52:04;24.87;;;14.40;;
11771;SDS011;12556;55.748;13.194;2022-10-31T11:54:35;23.80;;;14.47;;
11771;SDS011;12556;55.748;13.194;2022-10-31T11:57:19;26.27;;;14.83;;
11771;SDS011;12556;55.748;13.194;2022-10-31T11:59:50;26.53;;;14.87;;
11771;SDS011;12556;55.748;13.194;2022-10-31T12:02:19;25.33;;;14.90;;
11771;SDS011;12556;55.748;13.194;2022-10-31T12:04:48;29.50;;;15.30;;
11771;SDS011;12556;55.748;13.194;2022-10-31T12:07:23;24.20;;;13.93;;
11771;SDS011;12556;55.748;13.194;2022-10-31T12:09:52;26.40;;;15.40;;
11771;SDS011;12556;55.748;13.194;2022-10-31T12:12:24;26.83;;;13.97;;
11771;SDS011;12556;55.748;13.194;2022-10-31T12:15:02;26.23;;;15.00;;
11771;SDS011;12556;55.748;13.194;2022-10-31T12:17:47;29.17;;;15.20;;
11771;SDS011;12556;55.748;13.194;2022-10-31T12:20:23;24.73;;;14.73;;
11771;SDS011;12556;55.748;13.194;2022-10-31T12:22:59;25.63;;;14.73;;
11771;SDS011;12556;55.748;13.194;2022-10-31T12:25:35;25.43;;;14.97;;
11771;SDS011;12556;55.748;13.194;2022-10-31T12:28:17;29.73;;;15.77;;
11771;SDS011;12556;55.748;13.194;2022-10-31T12:31:01;34.13;;;15.70;;
11771;SDS011;12556;55.748;13.194;2022-10-31T12:33:45;31.23;;;16.30;;
11771;SDS011;12556;55.748;13.194;2022-10-31T12:36:29;32.40;;;16.33;;
11771;SDS011;12556;55.748;13.194;2022-10-31T12:41:52;32.73;;;17.63;;
11771;SDS011;12556;55.748;13.194;2022-10-31T12:44:38;35.93;;;18.93;;
11771;SDS011;12556;55.748;13.194;2022-10-31T12:47:30;37.23;;;20.50;;
11771;SDS011;12556;55.748;13.194;2022-10-31T12:50:22;34.97;;;19.23;;
11771;SDS011;12556;55.748;13.194;2022-10-31T12:53:04;32.10;;;19.43;;
11771;SDS011;12556;55.748;13.194;2022-10-31T12:55:47;32.87;;;21.07;;
11771;SDS011;12556;55.748;13.194;2022-10-31T12:58:22;33.13;;;19.70;;
11771;SDS011;12556;55.748;13.194;2022-10-31T13:00:54;31.33;;;18.90;;
11771;SDS011;12556;55.748;13.194;2022-10-31T13:03:28;37.53;;;21.53;;
11771;SDS011;12556;55.748;13.194;2022-10-31T13:06:02;35.23;;;19.43;;
11771;SDS011;12556;55.748;13.194;2022-10-31T13:08:36;27.63;;;18.03;;
11771;SDS011;12556;55.748;13.194;2022-10-31T13:11:08;30.20;;;17.13;;
11771;SDS011;12556;55.748;13.194;2022-10-31T13:13:40;24.27;;;15.73;;
11771;SDS011;12556;55.748;13.194;2022-10-31T13:16:11;26.77;;;15.97;;
11771;SDS011;12556;55.748;13.194;2022-10-31T13:18:43;31.17;;;21.37;;
11771;SDS011;12556;55.748;13.194;2022-10-31T13:21:13;32.53;;;21.80;;
11771;SDS011;12556;55.748;13.194;2022-10-31T13:23:47;30.73;;;19.17;;
11771;SDS011;12556;55.748;13.194;2022-10-31T13:26:18;25.33;;;16.43;;
11771;SDS011;12556;55.748;13.194;2022-10-31T13:28:50;25.33;;;16.43;;
11771;SDS011;12556;55.748;13.194;2022-10-31T13:31:23;23.27;;;14.43;;
11771;SDS011;12556;55.748;13.194;2022-10-31T13:33:52;23.67;;;14.17;;
11771;SDS011;12556;55.748;13.194;2022-10-31T13:36:23;25.70;;;14.93;;
11771;SDS011;12556;55.748;13.194;2022-10-31T13:39:02;27.60;;;18.70;;
11771;SDS011;12556;55.748;13.194;2022-10-31T13:41:38;25.53;;;16.97;;
11771;SDS011;12556;55.748;13.194;2022-10-31T13:44:11;28.13;;;17.77;;
11771;SDS011;12556;55.748;13.194;2022-10-31T13:46:41;25.70;;;17.27;;
11771;SDS011;12556;55.748;13.194;2022-10-31T13:49:23;27.57;;;18.23;;
11771;SDS011;12556;55.748;13.194;2022-10-31T13:52:13;23.07;;;15.70;;
11771;SDS011;12556;55.748;13.194;2022-10-31T13:54:44;25.10;;;16.87;;
11771;SDS011;12556;55.748;13.194;2022-10-31T13:57:15;28.17;;;17.63;;
11771;SDS011;12556;55.748;13.194;2022-10-31T13:59:48;26.17;;;17.47;;
11771;SDS011;12556;55.748;13.194;2022-10-31T14:02:18;24.10;;;15.03;;
11771;SDS011;12556;55.748;13.194;2022-10-31T14:04:51;24.70;;;15.63;;
11771;SDS011;12556;55.748;13.194;2022-10-31T14:07:22;21.57;;;14.80;;
11771;SDS011;12556;55.748;13.194;2022-10-31T14:09:54;20.00;;;13.50;;
11771;SDS011;12556;55.748;13.194;2022-10-31T14:12:24;19.87;;;13.70;;
11771;SDS011;12556;55.748;13.194;2022-10-31T14:14:57;24.70;;;15.37;;
11771;SDS011;12556;55.748;13.194;2022-10-31T14:17:27;26.40;;;16.60;;
11771;SDS011;12556;55.748;13.194;2022-10-31T14:22:48;24.93;;;15.67;;
11771;SDS011;12556;55.748;13.194;2022-10-31T14:25:27;23.93;;;15.33;;
11771;SDS011;12556;55.748;13.194;2022-10-31T14:27:56;26.03;;;15.50;;
11771;SDS011;12556;55.748;13.194;2022-10-31T14:30:24;25.33;;;15.73;;
11771;SDS011;12556;55.748;13.194;2022-10-31T14:32:52;22.23;;;14.93;;
11771;SDS011;12556;55.748;13.194;2022-10-31T14:35:22;20.30;;;14.10;;